Terminal Aerodrome Forecast
Issued by NWS

Home | Current Version | Previous Version | Graphics & Text | Print | Product List | Glossary On
Versions: 1 2 3 4 5 6 7 8 9 10 11 12
000
FTUS45 KGGW 202321
TAFOLF
TAF
KOLF 202321Z 2100/2124 09005KT P6SM FEW090
     FM211400 31006KT P6SM SCT120
     FM212000 32015G23KT P6SM BKN080=

USA.gov is the U.S. government's official web portal to all federal, state and local government web resources and services.